sensor_id;sensor_type;location;lat;lon;timestamp;pressure;altitude;pressure_sealevel;temperature;humidity
72585;BME280;60618;40.084;32.908;2023-02-01T00:00:31;88615.84;;;-0.93;71.84
72585;BME280;60618;40.084;32.908;2023-02-01T00:02:58;88612.00;;;-1.01;73.30
72585;BME280;60618;40.084;32.908;2023-02-01T00:05:25;88619.53;;;-1.03;73.45
72585;BME280;60618;40.084;32.908;2023-02-01T00:07:52;88619.34;;;-1.08;74.52
72585;BME280;60618;40.084;32.908;2023-02-01T00:10:19;88619.75;;;-1.10;75.37
72585;BME280;60618;40.084;32.908;2023-02-01T00:12:46;88619.75;;;-1.10;75.56
72585;BME280;60618;40.084;32.908;2023-02-01T00:15:13;88617.59;;;-1.24;76.40
72585;BME280;60618;40.084;32.908;2023-02-01T00:17:40;88615.41;;;-1.26;76.61
72585;BME280;60618;40.084;32.908;2023-02-01T00:20:08;88608.31;;;-1.25;76.56
72585;BME280;60618;40.084;32.908;2023-02-01T00:22:35;88614.38;;;-1.41;78.11
72585;BME280;60618;40.084;32.908;2023-02-01T00:25:02;88614.19;;;-1.59;77.97
72585;BME280;60618;40.084;32.908;2023-02-01T00:27:29;88609.06;;;-1.63;78.53
72585;BME280;60618;40.084;32.908;2023-02-01T00:29:56;88606.56;;;-1.66;78.61
72585;BME280;60618;40.084;32.908;2023-02-01T00:32:23;88606.78;;;-1.61;78.78
72585;BME280;60618;40.084;32.908;2023-02-01T00:34:50;88610.09;;;-1.73;78.96
72585;BME280;60618;40.084;32.908;2023-02-01T00:37:17;88604.88;;;-1.73;79.26
72585;BME280;60618;40.084;32.908;2023-02-01T00:39:43;88610.31;;;-1.80;79.49
72585;BME280;60618;40.084;32.908;2023-02-01T00:42:10;88607.91;;;-1.75;80.10
72585;BME280;60618;40.084;32.908;2023-02-01T00:44:37;88609.06;;;-1.76;80.65
72585;BME280;60618;40.084;32.908;2023-02-01T00:47:04;88605.09;;;-1.80;79.81
72585;BME280;60618;40.084;32.908;2023-02-01T00:49:31;88619.50;;;-1.88;80.54
72585;BME280;60618;40.084;32.908;2023-02-01T00:51:58;88619.59;;;-1.92;81.25
72585;BME280;60618;40.084;32.908;2023-02-01T00:54:25;88604.34;;;-2.06;81.61
72585;BME280;60618;40.084;32.908;2023-02-01T00:56:51;88605.59;;;-1.98;82.17
72585;BME280;60618;40.084;32.908;2023-02-01T00:59:18;88608.72;;;-2.03;82.52
72585;BME280;60618;40.084;32.908;2023-02-01T01:01:45;88600.50;;;-2.02;82.67
72585;BME280;60618;40.084;32.908;2023-02-01T01:04:12;88609.78;;;-2.01;83.05
72585;BME280;60618;40.084;32.908;2023-02-01T01:06:39;88610.81;;;-1.98;83.37
72585;BME280;60618;40.084;32.908;2023-02-01T01:09:07;88620.09;;;-2.10;83.90
72585;BME280;60618;40.084;32.908;2023-02-01T01:11:37;88615.06;;;-2.17;84.45
72585;BME280;60618;40.084;32.908;2023-02-01T01:14:06;88606.94;;;-2.19;84.13
72585;BME280;60618;40.084;32.908;2023-02-01T01:16:36;88618.75;;;-2.14;84.21
72585;BME280;60618;40.084;32.908;2023-02-01T01:19:04;88608.69;;;-2.16;84.19
72585;BME280;60618;40.084;32.908;2023-02-01T01:21:31;88608.09;;;-2.20;83.58
72585;BME280;60618;40.084;32.908;2023-02-01T01:23:58;88607.97;;;-2.29;84.01
72585;BME280;60618;40.084;32.908;2023-02-01T01:26:26;88608.06;;;-2.33;84.40
72585;BME280;60618;40.084;32.908;2023-02-01T01:28:58;88616.41;;;-2.25;85.17
72585;BME280;60618;40.084;32.908;2023-02-01T01:31:26;88605.16;;;-2.22;85.00
72585;BME280;60618;40.084;32.908;2023-02-01T01:33:56;88607.53;;;-2.28;84.01
72585;BME280;60618;40.084;32.908;2023-02-01T01:36:24;88597.09;;;-2.28;85.02
72585;BME280;60618;40.084;32.908;2023-02-01T01:38:52;88600.25;;;-2.20;84.48
72585;BME280;60618;40.084;32.908;2023-02-01T01:41:25;88605.25;;;-2.25;84.33
72585;BME280;60618;40.084;32.908;2023-02-01T01:44:06;88607.03;;;-2.22;84.51
72585;BME280;60618;40.084;32.908;2023-02-01T01:46:52;88605.66;;;-2.27;84.33
72585;BME280;60618;40.084;32.908;2023-02-01T01:49:22;88620.69;;;-2.31;85.23
72585;BME280;60618;40.084;32.908;2023-02-01T01:52:00;88606.38;;;-2.26;85.26
72585;BME280;60618;40.084;32.908;2023-02-01T01:54:38;88614.63;;;-2.28;85.15
72585;BME280;60618;40.084;32.908;2023-02-01T01:57:14;88612.75;;;-2.40;85.59
72585;BME280;60618;40.084;32.908;2023-02-01T01:59:48;88620.13;;;-2.39;86.28
72585;BME280;60618;40.084;32.908;2023-02-01T02:02:17;88621.19;;;-2.36;85.90
72585;BME280;60618;40.084;32.908;2023-02-01T02:04:44;88615.56;;;-2.35;85.90
72585;BME280;60618;40.084;32.908;2023-02-01T02:07:19;88625.06;;;-2.28;85.32
72585;BME280;60618;40.084;32.908;2023-02-01T02:09:46;88625.47;;;-2.30;85.31
72585;BME280;60618;40.084;32.908;2023-02-01T02:12:26;88631.13;;;-2.31;85.35
72585;BME280;60618;40.084;32.908;2023-02-01T02:14:53;88630.59;;;-2.26;84.61
72585;BME280;60618;40.084;32.908;2023-02-01T02:17:29;88632.81;;;-2.24;84.89
72585;BME280;60618;40.084;32.908;2023-02-01T02:20:26;88635.50;;;-2.28;85.35
72585;BME280;60618;40.084;32.908;2023-02-01T02:23:30;88630.28;;;-2.28;85.21
72585;BME280;60618;40.084;32.908;2023-02-01T02:34:27;88625.34;;;-2.39;85.75
72585;BME280;60618;40.084;32.908;2023-02-01T02:42:42;88631.88;;;-2.60;85.91
72585;BME280;60618;40.084;32.908;2023-02-01T02:45:35;88631.81;;;-2.72;86.22
72585;BME280;60618;40.084;32.908;2023-02-01T02:48:21;88641.34;;;-2.82;86.64
72585;BME280;60618;40.084;32.908;2023-02-01T02:51:06;88633.53;;;-2.82;87.14
72585;BME280;60618;40.084;32.908;2023-02-01T02:54:25;88632.56;;;-2.88;87.64
72585;BME280;60618;40.084;32.908;2023-02-01T02:56:26;88635.00;;;-2.81;87.23
72585;BME280;60618;40.084;32.908;2023-02-01T02:58:55;88636.38;;;-2.76;87.69
72585;BME280;60618;40.084;32.908;2023-02-01T03:01:22;88637.25;;;-2.67;87.39
72585;BME280;60618;40.084;32.908;2023-02-01T03:03:49;88636.44;;;-2.64;87.37
72585;BME280;60618;40.084;32.908;2023-02-01T03:06:17;88639.13;;;-2.67;87.24
72585;BME280;60618;40.084;32.908;2023-02-01T03:08:44;88640.59;;;-2.66;86.57
72585;BME280;60618;40.084;32.908;2023-02-01T03:11:15;88642.47;;;-2.67;86.65
72585;BME280;60618;40.084;32.908;2023-02-01T03:16:24;88644.03;;;-2.69;86.21
72585;BME280;60618;40.084;32.908;2023-02-01T03:21:54;88649.69;;;-2.58;86.68
72585;BME280;60618;40.084;32.908;2023-02-01T03:24:29;88637.88;;;-2.63;85.92
72585;BME280;60618;40.084;32.908;2023-02-01T03:27:12;88651.59;;;-2.75;85.93
72585;BME280;60618;40.084;32.908;2023-02-01T03:29:52;88647.84;;;-2.74;86.04
72585;BME280;60618;40.084;32.908;2023-02-01T03:32:21;88646.88;;;-2.80;85.48
72585;BME280;60618;40.084;32.908;2023-02-01T03:34:49;88647.13;;;-2.74;85.51
72585;BME280;60618;40.084;32.908;2023-02-01T03:37:23;88643.91;;;-2.95;85.24
72585;BME280;60618;40.084;32.908;2023-02-01T03:40:00;88657.84;;;-3.01;85.52
72585;BME280;60618;40.084;32.908;2023-02-01T03:42:35;88657.25;;;-2.93;85.84
72585;BME280;60618;40.084;32.908;2023-02-01T03:45:07;88644.22;;;-2.93;85.74
72585;BME280;60618;40.084;32.908;2023-02-01T03:47:41;88653.25;;;-2.81;85.89
72585;BME280;60618;40.084;32.908;2023-02-01T03:50:16;88654.91;;;-2.87;85.49
72585;BME280;60618;40.084;32.908;2023-02-01T03:52:48;88661.31;;;-2.92;85.56
72585;BME280;60618;40.084;32.908;2023-02-01T03:55:19;88665.78;;;-2.92;85.31
72585;BME280;60618;40.084;32.908;2023-02-01T03:57:53;88671.00;;;-2.92;85.87
72585;BME280;60618;40.084;32.908;2023-02-01T04:00:24;88678.34;;;-3.03;85.25
72585;BME280;60618;40.084;32.908;2023-02-01T04:02:52;88673.56;;;-3.05;85.75
72585;BME280;60618;40.084;32.908;2023-02-01T04:05:20;88672.41;;;-3.04;86.00
72585;BME280;60618;40.084;32.908;2023-02-01T04:07:48;88683.47;;;-3.00;86.50
72585;BME280;60618;40.084;32.908;2023-02-01T04:10:15;88691.06;;;-3.05;86.48
72585;BME280;60618;40.084;32.908;2023-02-01T04:12:45;88687.31;;;-3.04;86.75
72585;BME280;60618;40.084;32.908;2023-02-01T04:15:12;88696.91;;;-3.01;87.17
72585;BME280;60618;40.084;32.908;2023-02-01T04:17:39;88693.16;;;-3.00;87.23
72585;BME280;60618;40.084;32.908;2023-02-01T04:20:06;88693.66;;;-3.05;87.32
72585;BME280;60618;40.084;32.908;2023-02-01T04:22:33;88697.06;;;-3.08;87.42
72585;BME280;60618;40.084;32.908;2023-02-01T04:25:00;88703.81;;;-3.11;87.57
72585;BME280;60618;40.084;32.908;2023-02-01T04:27:27;88708.53;;;-3.06;87.59
72585;BME280;60618;40.084;32.908;2023-02-01T04:29:54;88707.47;;;-3.08;87.98
72585;BME280;60618;40.084;32.908;2023-02-01T04:32:23;88704.28;;;-3.16;87.37
72585;BME280;60618;40.084;32.908;2023-02-01T04:34:50;88708.72;;;-3.13;87.84
72585;BME280;60618;40.084;32.908;2023-02-01T04:37:17;88713.97;;;-3.17;87.88
72585;BME280;60618;40.084;32.908;2023-02-01T04:39:44;88719.84;;;-3.12;87.40
72585;BME280;60618;40.084;32.908;2023-02-01T04:42:11;88721.63;;;-3.09;87.00
72585;BME280;60618;40.084;32.908;2023-02-01T04:44:38;88716.75;;;-3.07;86.17
72585;BME280;60618;40.084;32.908;2023-02-01T04:47:05;88711.53;;;-3.07;85.99
72585;BME280;60618;40.084;32.908;2023-02-01T04:49:32;88718.47;;;-3.01;86.50
72585;BME280;60618;40.084;32.908;2023-02-01T04:51:59;88716.03;;;-2.92;85.87
72585;BME280;60618;40.084;32.908;2023-02-01T04:54:26;88723.25;;;-2.83;85.14
72585;BME280;60618;40.084;32.908;2023-02-01T04:56:53;88727.91;;;-2.74;85.15
72585;BME280;60618;40.084;32.908;2023-02-01T04:59:19;88729.59;;;-2.68;84.62
72585;BME280;60618;40.084;32.908;2023-02-01T05:01:46;88728.28;;;-2.60;85.11
72585;BME280;60618;40.084;32.908;2023-02-01T05:04:14;88723.97;;;-2.50;84.42
72585;BME280;60618;40.084;32.908;2023-02-01T05:06:41;88727.38;;;-2.53;83.57
72585;BME280;60618;40.084;32.908;2023-02-01T05:09:08;88727.38;;;-2.53;84.10
72585;BME280;60618;40.084;32.908;2023-02-01T05:11:35;88732.41;;;-2.46;83.59
72585;BME280;60618;40.084;32.908;2023-02-01T05:14:02;88728.91;;;-2.39;83.81
72585;BME280;60618;40.084;32.908;2023-02-01T05:16:29;88734.75;;;-2.35;83.76
72585;BME280;60618;40.084;32.908;2023-02-01T05:18:56;88744.78;;;-2.34;83.25
72585;BME280;60618;40.084;32.908;2023-02-01T05:21:23;88741.56;;;-2.25;83.40
72585;BME280;60618;40.084;32.908;2023-02-01T05:23:50;88746.16;;;-2.29;83.23
72585;BME280;60618;40.084;32.908;2023-02-01T05:26:17;88741.09;;;-2.20;83.01
72585;BME280;60618;40.084;32.908;2023-02-01T05:28:43;88742.53;;;-2.19;82.33
72585;BME280;60618;40.084;32.908;2023-02-01T05:31:11;88747.94;;;-2.26;82.13
72585;BME280;60618;40.084;32.908;2023-02-01T05:33:38;88745.06;;;-2.15;82.58
72585;BME280;60618;40.084;32.908;2023-02-01T05:36:05;88746.75;;;-2.09;81.58
72585;BME280;60618;40.084;32.908;2023-02-01T05:38:32;88751.16;;;-2.06;81.81
72585;BME280;60618;40.084;32.908;2023-02-01T05:40:59;88751.56;;;-2.07;81.49
72585;BME280;60618;40.084;32.908;2023-02-01T05:43:26;88749.59;;;-2.03;81.46
72585;BME280;60618;40.084;32.908;2023-02-01T05:45:53;88760.78;;;-1.90;81.65
72585;BME280;60618;40.084;32.908;2023-02-01T05:48:20;88764.13;;;-1.89;81.35
72585;BME280;60618;40.084;32.908;2023-02-01T05:50:47;88759.13;;;-1.96;80.06
72585;BME280;60618;40.084;32.908;2023-02-01T05:53:14;88762.31;;;-2.05;80.47
72585;BME280;60618;40.084;32.908;2023-02-01T05:55:42;88760.88;;;-2.06;81.41
72585;BME280;60618;40.084;32.908;2023-02-01T05:58:09;88775.50;;;-1.96;81.55
72585;BME280;60618;40.084;32.908;2023-02-01T06:00:36;88781.91;;;-1.84;80.84
72585;BME280;60618;40.084;32.908;2023-02-01T06:03:03;88772.75;;;-1.76;80.65
72585;BME280;60618;40.084;32.908;2023-02-01T06:05:30;88775.66;;;-1.74;80.09
72585;BME280;60618;40.084;32.908;2023-02-01T06:07:57;88778.41;;;-1.65;79.51
72585;BME280;60618;40.084;32.908;2023-02-01T06:10:24;88786.22;;;-1.78;79.53
72585;BME280;60618;40.084;32.908;2023-02-01T06:12:51;88786.41;;;-1.85;79.24
72585;BME280;60618;40.084;32.908;2023-02-01T06:15:18;88790.59;;;-1.75;79.93
72585;BME280;60618;40.084;32.908;2023-02-01T06:17:45;88787.38;;;-1.66;80.07
72585;BME280;60618;40.084;32.908;2023-02-01T06:20:14;88795.34;;;-1.57;79.75
72585;BME280;60618;40.084;32.908;2023-02-01T06:22:41;88794.72;;;-1.61;78.58
72585;BME280;60618;40.084;32.908;2023-02-01T06:25:09;88797.66;;;-1.46;78.98
72585;BME280;60618;40.084;32.908;2023-02-01T06:27:36;88794.25;;;-1.43;78.28
72585;BME280;60618;40.084;32.908;2023-02-01T06:30:05;88798.41;;;-1.46;78.31
72585;BME280;60618;40.084;32.908;2023-02-01T06:32:32;88807.31;;;-1.30;78.18
72585;BME280;60618;40.084;32.908;2023-02-01T06:34:59;88801.59;;;-1.25;76.40
72585;BME280;60618;40.084;32.908;2023-02-01T06:37:26;88801.25;;;-1.27;77.10
72585;BME280;60618;40.084;32.908;2023-02-01T06:39:53;88811.06;;;-1.31;76.15
72585;BME280;60618;40.084;32.908;2023-02-01T06:42:20;88811.91;;;-1.34;76.31
72585;BME280;60618;40.084;32.908;2023-02-01T06:44:47;88818.31;;;-1.23;76.35
72585;BME280;60618;40.084;32.908;2023-02-01T06:47:14;88817.38;;;-1.16;76.16
72585;BME280;60618;40.084;32.908;2023-02-01T06:49:41;88811.19;;;-1.09;75.71
72585;BME280;60618;40.084;32.908;2023-02-01T06:52:07;88815.19;;;-1.05;74.45
72585;BME280;60618;40.084;32.908;2023-02-01T06:54:34;88827.72;;;-1.12;74.44
72585;BME280;60618;40.084;32.908;2023-02-01T06:57:01;88825.72;;;-1.08;74.75
72585;BME280;60618;40.084;32.908;2023-02-01T06:59:28;88825.44;;;-0.85;74.32
72585;BME280;60618;40.084;32.908;2023-02-01T07:01:56;88828.69;;;-0.68;73.51
72585;BME280;60618;40.084;32.908;2023-02-01T07:04:23;88825.78;;;-0.70;73.49
72585;BME280;60618;40.084;32.908;2023-02-01T07:06:50;88827.34;;;-0.60;73.05
72585;BME280;60618;40.084;32.908;2023-02-01T07:09:17;88831.94;;;-0.51;73.80
72585;BME280;60618;40.084;32.908;2023-02-01T07:11:44;88831.09;;;-0.36;72.79
72585;BME280;60618;40.084;32.908;2023-02-01T07:14:11;88837.75;;;-0.22;71.44
72585;BME280;60618;40.084;32.908;2023-02-01T07:16:38;88837.00;;;0.03;71.96
72585;BME280;60618;40.084;32.908;2023-02-01T07:19:05;88842.84;;;0.07;70.70
72585;BME280;60618;40.084;32.908;2023-02-01T07:21:32;88849.09;;;0.22;70.29
72585;BME280;60618;40.084;32.908;2023-02-01T07:23:59;88850.75;;;0.29;70.75
72585;BME280;60618;40.084;32.908;2023-02-01T07:26:26;88849.00;;;0.48;69.44
72585;BME280;60618;40.084;32.908;2023-02-01T07:28:53;88855.06;;;0.45;67.86
72585;BME280;60618;40.084;32.908;2023-02-01T07:31:20;88858.25;;;0.62;69.36
72585;BME280;60618;40.084;32.908;2023-02-01T07:33:48;88851.38;;;0.99;68.19
72585;BME280;60618;40.084;32.908;2023-02-01T07:36:16;88853.81;;;1.15;67.90
72585;BME280;60618;40.084;32.908;2023-02-01T07:38:44;88847.34;;;1.07;66.15
72585;BME280;60618;40.084;32.908;2023-02-01T07:41:11;88846.91;;;1.30;67.64
72585;BME280;60618;40.084;32.908;2023-02-01T07:43:38;88849.50;;;1.61;66.63
72585;BME280;60618;40.084;32.908;2023-02-01T07:46:06;88851.03;;;1.81;66.79
72585;BME280;60618;40.084;32.908;2023-02-01T07:48:33;88852.56;;;2.00;67.52
72585;BME280;60618;40.084;32.908;2023-02-01T07:51:05;88849.81;;;2.13;65.89
72585;BME280;60618;40.084;32.908;2023-02-01T07:53:34;88854.59;;;2.05;65.29
72585;BME280;60618;40.084;32.908;2023-02-01T07:56:02;88857.69;;;2.13;66.56
72585;BME280;60618;40.084;32.908;2023-02-01T07:58:29;88865.75;;;2.27;65.50
72585;BME280;60618;40.084;32.908;2023-02-01T08:00:57;88862.97;;;2.40;65.05
72585;BME280;60618;40.084;32.908;2023-02-01T08:03:24;88868.69;;;2.48;65.67
72585;BME280;60618;40.084;32.908;2023-02-01T08:05:55;88865.31;;;2.38;63.41
72585;BME280;60618;40.084;32.908;2023-02-01T08:08:22;88863.84;;;2.37;64.70
72585;BME280;60618;40.084;32.908;2023-02-01T08:10:49;88865.75;;;2.27;65.27
72585;BME280;60618;40.084;32.908;2023-02-01T08:13:16;88869.97;;;2.25;63.37
72585;BME280;60618;40.084;32.908;2023-02-01T08:15:43;88874.34;;;2.28;64.82
72585;BME280;60618;40.084;32.908;2023-02-01T08:18:10;88869.69;;;2.32;64.93
72585;BME280;60618;40.084;32.908;2023-02-01T08:20:37;88872.31;;;2.32;64.75
72585;BME280;60618;40.084;32.908;2023-02-01T08:23:07;88874.34;;;2.19;64.10
72585;BME280;60618;40.084;32.908;2023-02-01T08:25:34;88877.06;;;2.06;63.83
72585;BME280;60618;40.084;32.908;2023-02-01T08:28:02;88881.56;;;1.96;63.31
72585;BME280;60618;40.084;32.908;2023-02-01T08:30:29;88880.28;;;2.01;62.62
72585;BME280;60618;40.084;32.908;2023-02-01T08:32:56;88881.63;;;2.24;65.12
72585;BME280;60618;40.084;32.908;2023-02-01T08:35:23;88882.81;;;2.41;64.15
72585;BME280;60618;40.084;32.908;2023-02-01T08:38:08;88885.06;;;2.61;65.88
72585;BME280;60618;40.084;32.908;2023-02-01T08:40:34;88886.38;;;2.75;65.11
72585;BME280;60618;40.084;32.908;2023-02-01T08:43:02;88883.16;;;2.71;64.66
72585;BME280;60618;40.084;32.908;2023-02-01T08:45:29;88884.91;;;2.55;63.54
72585;BME280;60618;40.084;32.908;2023-02-01T08:47:56;88887.53;;;2.46;63.80
72585;BME280;60618;40.084;32.908;2023-02-01T08:50:24;88893.69;;;2.62;64.56
72585;BME280;60618;40.084;32.908;2023-02-01T08:52:52;88885.94;;;2.67;63.38
72585;BME280;60618;40.084;32.908;2023-02-01T08:55:20;88879.66;;;2.74;62.44
72585;BME280;60618;40.084;32.908;2023-02-01T08:57:47;88879.94;;;2.48;62.88
72585;BME280;60618;40.084;32.908;2023-02-01T09:00:16;88882.56;;;2.58;63.60
72585;BME280;60618;40.084;32.908;2023-02-01T09:02:44;88881.38;;;2.49;62.89
72585;BME280;60618;40.084;32.908;2023-02-01T09:05:11;88876.72;;;2.53;63.13
72585;BME280;60618;40.084;32.908;2023-02-01T09:07:39;88881.72;;;2.70;63.68
72585;BME280;60618;40.084;32.908;2023-02-01T09:10:08;88886.38;;;2.75;62.76
72585;BME280;60618;40.084;32.908;2023-02-01T09:12:39;88884.03;;;2.59;63.65
72585;BME280;60618;40.084;32.908;2023-02-01T09:15:08;88880.09;;;2.63;63.50
72585;BME280;60618;40.084;32.908;2023-02-01T09:17:36;88872.63;;;2.43;62.70
72585;BME280;60618;40.084;32.908;2023-02-01T09:20:03;88873.66;;;2.46;62.93
72585;BME280;60618;40.084;32.908;2023-02-01T09:22:31;88868.84;;;2.53;61.88
72585;BME280;60618;40.084;32.908;2023-02-01T09:24:58;88861.53;;;2.39;61.33
72585;BME280;60618;40.084;32.908;2023-02-01T09:27:25;88868.28;;;1.91;60.55
72585;BME280;60618;40.084;32.908;2023-02-01T09:29:52;88871.16;;;1.84;62.08
72585;BME280;60618;40.084;32.908;2023-02-01T09:32:21;88861.63;;;1.68;60.71
72585;BME280;60618;40.084;32.908;2023-02-01T09:34:49;88867.06;;;1.74;63.19
72585;BME280;60618;40.084;32.908;2023-02-01T09:37:16;88858.31;;;1.77;62.66
72585;BME280;60618;40.084;32.908;2023-02-01T09:39:43;88860.22;;;1.76;61.56
72585;BME280;60618;40.084;32.908;2023-02-01T09:42:35;88854.50;;;1.68;62.14
72585;BME280;60618;40.084;32.908;2023-02-01T09:48:01;88862.56;;;1.83;61.65
72585;BME280;60618;40.084;32.908;2023-02-01T09:50:38;88863.13;;;1.78;60.57
72585;BME280;60618;40.084;32.908;2023-02-01T09:53:33;88855.41;;;1.43;62.57
72585;BME280;60618;40.084;32.908;2023-02-01T09:56:13;88854.75;;;0.99;64.02
72585;BME280;60618;40.084;32.908;2023-02-01T09:58:43;88848.09;;;1.38;64.66
72585;BME280;60618;40.084;32.908;2023-02-01T10:01:20;88852.38;;;1.45;64.72
72585;BME280;60618;40.084;32.908;2023-02-01T10:03:48;88843.72;;;1.35;65.11
72585;BME280;60618;40.084;32.908;2023-02-01T10:06:33;88852.28;;;1.27;64.07
72585;BME280;60618;40.084;32.908;2023-02-01T10:15:19;88846.19;;;1.70;63.09
72585;BME280;60618;40.084;32.908;2023-02-01T10:20:34;88841.63;;;2.02;62.28
72585;BME280;60618;40.084;32.908;2023-02-01T10:28:33;88835.34;;;1.59;63.34
72585;BME280;60618;40.084;32.908;2023-02-01T10:31:01;88836.34;;;1.92;64.02
72585;BME280;60618;40.084;32.908;2023-02-01T10:33:33;88829.88;;;1.75;63.66
72585;BME280;60618;40.084;32.908;2023-02-01T10:36:14;88825.06;;;1.74;64.99
72585;BME280;60618;40.084;32.908;2023-02-01T10:38:42;88827.72;;;1.92;65.70
72585;BME280;60618;40.084;32.908;2023-02-01T10:41:19;88820.66;;;1.70;64.09
72585;BME280;60618;40.084;32.908;2023-02-01T10:43:50;88823.72;;;1.29;65.16
72585;BME280;60618;40.084;32.908;2023-02-01T10:46:18;88821.00;;;1.41;64.47
72585;BME280;60618;40.084;32.908;2023-02-01T10:48:45;88815.69;;;1.63;65.96
72585;BME280;60618;40.084;32.908;2023-02-01T10:51:23;88811.41;;;1.97;64.71
72585;BME280;60618;40.084;32.908;2023-02-01T10:54:01;88816.22;;;1.89;63.30
72585;BME280;60618;40.084;32.908;2023-02-01T10:56:29;88816.53;;;1.60;62.74
72585;BME280;60618;40.084;32.908;2023-02-01T10:59:02;88809.63;;;1.85;62.49
72585;BME280;60618;40.084;32.908;2023-02-01T11:01:31;88808.94;;;2.03;62.62
72585;BME280;60618;40.084;32.908;2023-02-01T11:04:05;88799.59;;;2.02;63.90
72585;BME280;60618;40.084;32.908;2023-02-01T11:06:41;88812.97;;;1.85;62.94
72585;BME280;60618;40.084;32.908;2023-02-01T11:09:11;88809.63;;;1.85;64.52
72585;BME280;60618;40.084;32.908;2023-02-01T11:16:56;88806.53;;;1.77;64.76
72585;BME280;60618;40.084;32.908;2023-02-01T11:19:23;88818.81;;;1.40;66.55
72585;BME280;60618;40.084;32.908;2023-02-01T11:21:56;88821.50;;;0.96;68.68
72585;BME280;60618;40.084;32.908;2023-02-01T11:24:32;88813.53;;;0.78;69.95
72585;BME280;60618;40.084;32.908;2023-02-01T11:27:02;88825.25;;;0.64;70.72
72585;BME280;60618;40.084;32.908;2023-02-01T11:29:37;88833.59;;;0.50;71.29
72585;BME280;60618;40.084;32.908;2023-02-01T11:32:07;88833.53;;;0.41;71.32
72585;BME280;60618;40.084;32.908;2023-02-01T11:34:39;88833.16;;;0.51;71.36
72585;BME280;60618;40.084;32.908;2023-02-01T11:37:37;88832.06;;;0.83;71.69
72585;BME280;60618;40.084;32.908;2023-02-01T11:43:15;88830.84;;;0.75;70.41
72585;BME280;60618;40.084;32.908;2023-02-01T11:45:40;88830.63;;;1.13;69.11
72585;BME280;60618;40.084;32.908;2023-02-01T11:48:15;88831.13;;;1.21;68.72
72585;BME280;60618;40.084;32.908;2023-02-01T12:07:19;88838.28;;;1.61;68.64
72585;BME280;60618;40.084;32.908;2023-02-01T12:10:05;88837.91;;;1.72;67.57
72585;BME280;60618;40.084;32.908;2023-02-01T12:12:51;88838.72;;;2.09;67.21
72585;BME280;60618;40.084;32.908;2023-02-01T12:26:40;88854.88;;;1.98;63.25
72585;BME280;60618;40.084;32.908;2023-02-01T12:40:51;88865.41;;;1.67;66.38
72585;BME280;60618;40.084;32.908;2023-02-01T12:43:20;88869.97;;;1.35;65.39
72585;BME280;60618;40.084;32.908;2023-02-01T12:45:58;88863.22;;;1.34;65.10
72585;BME280;60618;40.084;32.908;2023-02-01T12:51:46;88857.44;;;1.08;66.01
72585;BME280;60618;40.084;32.908;2023-02-01T12:54:22;88872.09;;;1.28;65.69
72585;BME280;60618;40.084;32.908;2023-02-01T12:57:38;88871.91;;;1.22;66.74
72585;BME280;60618;40.084;32.908;2023-02-01T13:00:02;88882.34;;;1.13;68.51
72585;BME280;60618;40.084;32.908;2023-02-01T13:02:42;88875.84;;;0.96;70.41
72585;BME280;60618;40.084;32.908;2023-02-01T13:05:20;88887.94;;;0.80;70.05
72585;BME280;60618;40.084;32.908;2023-02-01T13:08:36;88879.97;;;0.84;70.41
72585;BME280;60618;40.084;32.908;2023-02-01T13:11:16;88881.44;;;0.85;70.48
72585;BME280;60618;40.084;32.908;2023-02-01T13:14:05;88882.91;;;0.64;70.22
72585;BME280;60618;40.084;32.908;2023-02-01T13:16:49;88896.41;;;0.63;72.71
72585;BME280;60618;40.084;32.908;2023-02-01T13:21:57;88902.94;;;0.58;72.02
72585;BME280;60618;40.084;32.908;2023-02-01T13:24:41;88901.56;;;0.53;69.54
72585;BME280;60618;40.084;32.908;2023-02-01T13:27:16;88906.41;;;0.55;71.58
72585;BME280;60618;40.084;32.908;2023-02-01T13:35:40;88920.91;;;0.69;70.23
72585;BME280;60618;40.084;32.908;2023-02-01T13:40:45;88922.56;;;0.41;70.81
72585;BME280;60618;40.084;32.908;2023-02-01T13:45:50;88920.25;;;0.43;71.47
72585;BME280;60618;40.084;32.908;2023-02-01T13:48:25;88928.63;;;0.50;69.93
72585;BME280;60618;40.084;32.908;2023-02-01T13:50:56;88930.94;;;0.83;67.96
72585;BME280;60618;40.084;32.908;2023-02-01T13:53:32;88934.38;;;0.93;67.62
72585;BME280;60618;40.084;32.908;2023-02-01T13:56:08;88943.88;;;0.99;67.50
72585;BME280;60618;40.084;32.908;2023-02-01T13:58:39;88930.72;;;1.12;66.87
72585;BME280;60618;40.084;32.908;2023-02-01T14:03:56;88940.72;;;1.04;65.44
72585;BME280;60618;40.084;32.908;2023-02-01T14:09:30;88945.94;;;0.82;66.08
72585;BME280;60618;40.084;32.908;2023-02-01T14:11:58;88948.28;;;0.68;66.42
72585;BME280;60618;40.084;32.908;2023-02-01T14:14:47;88948.06;;;0.62;66.07
72585;BME280;60618;40.084;32.908;2023-02-01T14:23:03;88955.84;;;0.53;68.85
72585;BME280;60618;40.084;32.908;2023-02-01T14:25:34;88955.25;;;0.49;68.65
72585;BME280;60618;40.084;32.908;2023-02-01T14:28:01;88961.84;;;0.41;68.75
72585;BME280;60618;40.084;32.908;2023-02-01T14:30:32;88966.34;;;0.40;69.30
72585;BME280;60618;40.084;32.908;2023-02-01T14:33:17;88977.34;;;0.35;69.39
72585;BME280;60618;40.084;32.908;2023-02-01T14:36:03;88970.13;;;0.26;68.70
72585;BME280;60618;40.084;32.908;2023-02-01T14:41:32;88964.50;;;0.15;67.71
72585;BME280;60618;40.084;32.908;2023-02-01T14:49:49;88979.25;;;-0.04;67.75
72585;BME280;60618;40.084;32.908;2023-02-01T14:52:20;88980.53;;;-0.08;68.44
72585;BME280;60618;40.084;32.908;2023-02-01T14:54:56;88968.91;;;-0.20;68.98
72585;BME280;60618;40.084;32.908;2023-02-01T14:57:27;88978.31;;;-0.35;69.92
72585;BME280;60618;40.084;32.908;2023-02-01T15:02:43;88981.84;;;-0.42;70.89
72585;BME280;60618;40.084;32.908;2023-02-01T15:07:54;89000.84;;;-0.54;71.80
72585;BME280;60618;40.084;32.908;2023-02-01T15:10:23;88993.00;;;-0.67;71.54
72585;BME280;60618;40.084;32.908;2023-02-01T15:12:51;88977.31;;;-0.67;72.00
72585;BME280;60618;40.084;32.908;2023-02-01T15:15:23;89006.84;;;-0.82;73.01
72585;BME280;60618;40.084;32.908;2023-02-01T15:17:58;89020.50;;;-0.91;73.36
72585;BME280;60618;40.084;32.908;2023-02-01T15:20:28;89030.44;;;-0.99;73.78